sensor_id;sensor_type;location;lat;lon;timestamp;P1;durP1;ratioP1;P2;durP2;ratioP2
59846;SDS011;45728;48.788;2.302;2023-06-22T00:02:17;3.63;;;2.67;;
59846;SDS011;45728;48.788;2.302;2023-06-22T00:04:44;3.42;;;3.13;;
59846;SDS011;45728;48.788;2.302;2023-06-22T00:07:10;4.55;;;2.95;;
59846;SDS011;45728;48.788;2.302;2023-06-22T00:09:36;4.13;;;3.05;;
59846;SDS011;45728;48.788;2.302;2023-06-22T00:12:02;2.78;;;2.38;;
59846;SDS011;45728;48.788;2.302;2023-06-22T00:14:29;5.15;;;3.13;;
59846;SDS011;45728;48.788;2.302;2023-06-22T00:16:55;5.05;;;2.97;;
59846;SDS011;45728;48.788;2.302;2023-06-22T00:19:22;3.60;;;3.30;;
59846;SDS011;45728;48.788;2.302;2023-06-22T00:21:50;4.03;;;3.15;;
59846;SDS011;45728;48.788;2.302;2023-06-22T00:24:19;3.97;;;3.10;;
59846;SDS011;45728;48.788;2.302;2023-06-22T00:26:45;7.50;;;3.17;;
59846;SDS011;45728;48.788;2.302;2023-06-22T00:29:13;7.07;;;3.50;;
59846;SDS011;45728;48.788;2.302;2023-06-22T00:31:39;6.30;;;2.95;;
59846;SDS011;45728;48.788;2.302;2023-06-22T00:34:05;4.80;;;3.05;;
59846;SDS011;45728;48.788;2.302;2023-06-22T00:36:34;6.72;;;3.72;;
59846;SDS011;45728;48.788;2.302;2023-06-22T00:39:06;4.93;;;3.40;;
59846;SDS011;45728;48.788;2.302;2023-06-22T00:41:33;4.10;;;3.45;;
59846;SDS011;45728;48.788;2.302;2023-06-22T00:43:59;5.72;;;3.47;;
59846;SDS011;45728;48.788;2.302;2023-06-22T00:46:25;3.50;;;2.92;;
59846;SDS011;45728;48.788;2.302;2023-06-22T00:48:51;4.60;;;3.33;;
59846;SDS011;45728;48.788;2.302;2023-06-22T00:51:18;4.07;;;3.33;;
59846;SDS011;45728;48.788;2.302;2023-06-22T00:53:50;5.85;;;2.97;;
59846;SDS011;45728;48.788;2.302;2023-06-22T00:56:17;3.15;;;2.85;;
59846;SDS011;45728;48.788;2.302;2023-06-22T00:58:45;6.95;;;3.10;;
59846;SDS011;45728;48.788;2.302;2023-06-22T01:01:13;5.05;;;3.55;;
59846;SDS011;45728;48.788;2.302;2023-06-22T01:03:40;7.05;;;3.10;;
59846;SDS011;45728;48.788;2.302;2023-06-22T01:06:07;8.15;;;3.63;;
59846;SDS011;45728;48.788;2.302;2023-06-22T01:11:32;4.22;;;3.60;;
59846;SDS011;45728;48.788;2.302;2023-06-22T01:14:07;4.88;;;3.10;;
59846;SDS011;45728;48.788;2.302;2023-06-22T01:16:43;5.30;;;3.45;;
59846;SDS011;45728;48.788;2.302;2023-06-22T01:22:00;3.80;;;3.42;;
59846;SDS011;45728;48.788;2.302;2023-06-22T01:24:30;5.20;;;2.90;;
59846;SDS011;45728;48.788;2.302;2023-06-22T01:29:55;4.18;;;2.90;;
59846;SDS011;45728;48.788;2.302;2023-06-22T01:32:34;5.10;;;3.40;;
59846;SDS011;45728;48.788;2.302;2023-06-22T01:35:03;4.25;;;3.35;;
59846;SDS011;45728;48.788;2.302;2023-06-22T01:37:32;4.63;;;3.35;;
59846;SDS011;45728;48.788;2.302;2023-06-22T01:39:59;4.75;;;3.25;;
59846;SDS011;45728;48.788;2.302;2023-06-22T01:42:26;5.28;;;3.20;;
59846;SDS011;45728;48.788;2.302;2023-06-22T01:44:53;4.88;;;3.35;;
59846;SDS011;45728;48.788;2.302;2023-06-22T01:47:20;3.90;;;3.50;;
59846;SDS011;45728;48.788;2.302;2023-06-22T01:49:47;4.95;;;3.40;;
59846;SDS011;45728;48.788;2.302;2023-06-22T01:52:15;5.13;;;3.67;;
59846;SDS011;45728;48.788;2.302;2023-06-22T01:54:41;4.15;;;3.58;;
59846;SDS011;45728;48.788;2.302;2023-06-22T01:57:07;3.75;;;3.30;;
59846;SDS011;45728;48.788;2.302;2023-06-22T01:59:37;6.38;;;3.50;;
59846;SDS011;45728;48.788;2.302;2023-06-22T02:07:34;4.72;;;3.35;;
59846;SDS011;45728;48.788;2.302;2023-06-22T02:10:07;4.00;;;3.35;;
59846;SDS011;45728;48.788;2.302;2023-06-22T02:12:34;6.43;;;3.95;;
59846;SDS011;45728;48.788;2.302;2023-06-22T02:15:02;4.60;;;3.35;;
59846;SDS011;45728;48.788;2.302;2023-06-22T02:17:28;5.03;;;3.75;;
59846;SDS011;45728;48.788;2.302;2023-06-22T02:19:58;4.45;;;3.72;;
59846;SDS011;45728;48.788;2.302;2023-06-22T02:22:26;5.50;;;3.80;;
59846;SDS011;45728;48.788;2.302;2023-06-22T02:24:52;6.40;;;3.72;;
59846;SDS011;45728;48.788;2.302;2023-06-22T02:27:18;4.60;;;3.63;;
59846;SDS011;45728;48.788;2.302;2023-06-22T02:29:44;4.57;;;3.50;;
59846;SDS011;45728;48.788;2.302;2023-06-22T02:32:10;6.70;;;3.80;;
59846;SDS011;45728;48.788;2.302;2023-06-22T02:34:36;4.63;;;3.55;;
59846;SDS011;45728;48.788;2.302;2023-06-22T02:37:02;4.95;;;3.78;;
59846;SDS011;45728;48.788;2.302;2023-06-22T02:39:29;4.25;;;3.50;;
59846;SDS011;45728;48.788;2.302;2023-06-22T02:41:55;5.75;;;4.05;;
59846;SDS011;45728;48.788;2.302;2023-06-22T02:44:21;5.28;;;3.15;;
59846;SDS011;45728;48.788;2.302;2023-06-22T02:46:47;4.20;;;3.67;;
59846;SDS011;45728;48.788;2.302;2023-06-22T02:49:14;4.55;;;3.60;;
59846;SDS011;45728;48.788;2.302;2023-06-22T02:51:41;5.28;;;3.22;;
59846;SDS011;45728;48.788;2.302;2023-06-22T02:54:10;3.88;;;3.40;;
59846;SDS011;45728;48.788;2.302;2023-06-22T02:56:36;5.03;;;3.03;;
59846;SDS011;45728;48.788;2.302;2023-06-22T02:59:02;4.60;;;3.33;;
59846;SDS011;45728;48.788;2.302;2023-06-22T03:01:29;4.90;;;3.97;;
59846;SDS011;45728;48.788;2.302;2023-06-22T03:04:05;4.03;;;3.28;;
59846;SDS011;45728;48.788;2.302;2023-06-22T03:06:32;3.95;;;3.33;;
59846;SDS011;45728;48.788;2.302;2023-06-22T03:09:00;5.53;;;3.60;;
59846;SDS011;45728;48.788;2.302;2023-06-22T03:11:29;4.40;;;3.78;;
59846;SDS011;45728;48.788;2.302;2023-06-22T03:13:56;4.55;;;3.95;;
59846;SDS011;45728;48.788;2.302;2023-06-22T03:16:22;5.05;;;3.83;;
59846;SDS011;45728;48.788;2.302;2023-06-22T03:18:48;6.10;;;3.85;;
59846;SDS011;45728;48.788;2.302;2023-06-22T03:21:14;4.72;;;3.80;;
59846;SDS011;45728;48.788;2.302;2023-06-22T03:23:42;5.10;;;3.97;;
59846;SDS011;45728;48.788;2.302;2023-06-22T03:26:09;5.72;;;4.05;;
59846;SDS011;45728;48.788;2.302;2023-06-22T03:28:36;4.75;;;3.95;;
59846;SDS011;45728;48.788;2.302;2023-06-22T03:31:03;5.30;;;4.10;;
59846;SDS011;45728;48.788;2.302;2023-06-22T03:33:32;6.43;;;4.20;;
59846;SDS011;45728;48.788;2.302;2023-06-22T03:35:58;5.57;;;3.92;;
59846;SDS011;45728;48.788;2.302;2023-06-22T03:38:24;6.15;;;4.45;;
59846;SDS011;45728;48.788;2.302;2023-06-22T03:40:50;8.52;;;4.20;;
59846;SDS011;45728;48.788;2.302;2023-06-22T03:43:16;4.68;;;3.80;;
59846;SDS011;45728;48.788;2.302;2023-06-22T03:45:42;6.35;;;4.13;;
59846;SDS011;45728;48.788;2.302;2023-06-22T03:48:11;5.97;;;4.05;;
59846;SDS011;45728;48.788;2.302;2023-06-22T03:50:37;4.20;;;3.60;;
59846;SDS011;45728;48.788;2.302;2023-06-22T03:53:03;7.30;;;3.97;;
59846;SDS011;45728;48.788;2.302;2023-06-22T03:55:30;6.05;;;4.18;;
59846;SDS011;45728;48.788;2.302;2023-06-22T03:57:56;6.90;;;4.28;;
59846;SDS011;45728;48.788;2.302;2023-06-22T04:00:23;5.18;;;3.58;;
59846;SDS011;45728;48.788;2.302;2023-06-22T04:02:49;6.30;;;4.18;;
59846;SDS011;45728;48.788;2.302;2023-06-22T04:05:15;4.32;;;3.92;;
59846;SDS011;45728;48.788;2.302;2023-06-22T04:07:43;4.83;;;3.87;;
59846;SDS011;45728;48.788;2.302;2023-06-22T04:10:09;6.07;;;4.47;;
59846;SDS011;45728;48.788;2.302;2023-06-22T04:12:35;6.75;;;4.43;;
59846;SDS011;45728;48.788;2.302;2023-06-22T04:15:02;5.43;;;4.53;;
59846;SDS011;45728;48.788;2.302;2023-06-22T04:17:28;6.07;;;4.00;;
59846;SDS011;45728;48.788;2.302;2023-06-22T04:19:54;5.57;;;4.07;;
59846;SDS011;45728;48.788;2.302;2023-06-22T04:22:20;4.57;;;3.90;;
59846;SDS011;45728;48.788;2.302;2023-06-22T04:24:46;5.90;;;4.07;;
59846;SDS011;45728;48.788;2.302;2023-06-22T04:27:12;6.28;;;4.60;;
59846;SDS011;45728;48.788;2.302;2023-06-22T04:29:38;5.22;;;3.75;;
59846;SDS011;45728;48.788;2.302;2023-06-22T04:32:14;7.43;;;4.40;;
59846;SDS011;45728;48.788;2.302;2023-06-22T04:34:41;5.53;;;4.40;;
59846;SDS011;45728;48.788;2.302;2023-06-22T04:37:08;7.43;;;4.30;;
59846;SDS011;45728;48.788;2.302;2023-06-22T04:39:34;5.45;;;3.67;;
59846;SDS011;45728;48.788;2.302;2023-06-22T04:42:01;4.90;;;4.18;;
59846;SDS011;45728;48.788;2.302;2023-06-22T04:44:27;7.60;;;4.18;;
59846;SDS011;45728;48.788;2.302;2023-06-22T04:46:54;9.43;;;4.80;;
59846;SDS011;45728;48.788;2.302;2023-06-22T04:49:34;7.78;;;4.30;;
59846;SDS011;45728;48.788;2.302;2023-06-22T04:52:06;5.70;;;3.80;;
59846;SDS011;45728;48.788;2.302;2023-06-22T04:54:34;5.55;;;4.07;;
59846;SDS011;45728;48.788;2.302;2023-06-22T04:57:02;5.32;;;3.40;;
59846;SDS011;45728;48.788;2.302;2023-06-22T04:59:30;4.47;;;3.47;;
59846;SDS011;45728;48.788;2.302;2023-06-22T05:01:57;7.13;;;5.05;;
59846;SDS011;45728;48.788;2.302;2023-06-22T05:04:25;5.50;;;4.50;;
59846;SDS011;45728;48.788;2.302;2023-06-22T05:06:53;6.13;;;4.32;;
59846;SDS011;45728;48.788;2.302;2023-06-22T05:09:20;6.32;;;4.57;;
59846;SDS011;45728;48.788;2.302;2023-06-22T05:11:46;7.20;;;5.07;;
59846;SDS011;45728;48.788;2.302;2023-06-22T05:14:12;10.60;;;5.20;;
59846;SDS011;45728;48.788;2.302;2023-06-22T05:16:40;8.85;;;4.50;;
59846;SDS011;45728;48.788;2.302;2023-06-22T05:19:07;9.33;;;5.87;;
59846;SDS011;45728;48.788;2.302;2023-06-22T05:21:34;7.43;;;5.35;;
59846;SDS011;45728;48.788;2.302;2023-06-22T05:24:00;6.30;;;5.60;;
59846;SDS011;45728;48.788;2.302;2023-06-22T05:26:28;7.82;;;6.05;;
59846;SDS011;45728;48.788;2.302;2023-06-22T05:28:55;6.95;;;6.13;;
59846;SDS011;45728;48.788;2.302;2023-06-22T05:31:23;7.65;;;5.53;;
59846;SDS011;45728;48.788;2.302;2023-06-22T05:33:51;8.75;;;6.32;;
59846;SDS011;45728;48.788;2.302;2023-06-22T05:36:18;8.88;;;6.90;;
59846;SDS011;45728;48.788;2.302;2023-06-22T05:38:51;8.57;;;6.43;;
59846;SDS011;45728;48.788;2.302;2023-06-22T05:41:18;10.23;;;7.05;;
59846;SDS011;45728;48.788;2.302;2023-06-22T05:43:44;9.85;;;6.72;;
59846;SDS011;45728;48.788;2.302;2023-06-22T05:46:10;8.18;;;7.03;;
59846;SDS011;45728;48.788;2.302;2023-06-22T05:48:36;12.10;;;7.47;;
59846;SDS011;45728;48.788;2.302;2023-06-22T05:51:02;11.63;;;7.90;;
59846;SDS011;45728;48.788;2.302;2023-06-22T05:53:28;8.80;;;7.43;;
59846;SDS011;45728;48.788;2.302;2023-06-22T05:55:54;9.55;;;7.53;;
59846;SDS011;45728;48.788;2.302;2023-06-22T05:58:20;11.70;;;8.40;;
59846;SDS011;45728;48.788;2.302;2023-06-22T06:00:46;13.68;;;8.80;;
59846;SDS011;45728;48.788;2.302;2023-06-22T06:03:13;14.05;;;8.23;;
59846;SDS011;45728;48.788;2.302;2023-06-22T06:05:42;12.85;;;8.98;;
59846;SDS011;45728;48.788;2.302;2023-06-22T06:08:09;13.75;;;9.65;;
59846;SDS011;45728;48.788;2.302;2023-06-22T06:10:36;13.20;;;9.43;;
59846;SDS011;45728;48.788;2.302;2023-06-22T06:13:02;12.48;;;9.23;;
59846;SDS011;45728;48.788;2.302;2023-06-22T06:15:30;13.95;;;9.52;;
59846;SDS011;45728;48.788;2.302;2023-06-22T06:17:57;12.98;;;9.57;;
59846;SDS011;45728;48.788;2.302;2023-06-22T06:20:24;14.38;;;10.35;;
59846;SDS011;45728;48.788;2.302;2023-06-22T06:22:51;13.77;;;9.80;;
59846;SDS011;45728;48.788;2.302;2023-06-22T06:25:17;13.73;;;9.48;;
59846;SDS011;45728;48.788;2.302;2023-06-22T06:27:45;15.82;;;10.85;;
59846;SDS011;45728;48.788;2.302;2023-06-22T06:30:13;14.40;;;10.18;;
59846;SDS011;45728;48.788;2.302;2023-06-22T06:32:40;14.88;;;10.20;;
59846;SDS011;45728;48.788;2.302;2023-06-22T06:35:07;16.58;;;10.40;;
59846;SDS011;45728;48.788;2.302;2023-06-22T06:37:38;13.02;;;9.35;;
59846;SDS011;45728;48.788;2.302;2023-06-22T06:40:06;12.75;;;10.77;;
59846;SDS011;45728;48.788;2.302;2023-06-22T06:42:37;15.02;;;11.85;;
59846;SDS011;45728;48.788;2.302;2023-06-22T06:45:06;14.52;;;9.98;;
59846;SDS011;45728;48.788;2.302;2023-06-22T06:47:54;17.48;;;11.23;;
59846;SDS011;45728;48.788;2.302;2023-06-22T06:50:20;19.25;;;13.18;;
59846;SDS011;45728;48.788;2.302;2023-06-22T06:52:46;17.00;;;12.48;;
59846;SDS011;45728;48.788;2.302;2023-06-22T06:55:12;15.23;;;11.98;;
59846;SDS011;45728;48.788;2.302;2023-06-22T06:57:39;20.92;;;14.65;;
59846;SDS011;45728;48.788;2.302;2023-06-22T07:00:06;21.30;;;14.75;;
59846;SDS011;45728;48.788;2.302;2023-06-22T07:02:39;18.65;;;14.85;;
59846;SDS011;45728;48.788;2.302;2023-06-22T07:05:07;17.38;;;14.25;;
59846;SDS011;45728;48.788;2.302;2023-06-22T07:07:34;18.70;;;12.77;;
59846;SDS011;45728;48.788;2.302;2023-06-22T07:10:01;18.48;;;14.15;;
59846;SDS011;45728;48.788;2.302;2023-06-22T07:12:27;19.23;;;15.00;;
59846;SDS011;45728;48.788;2.302;2023-06-22T07:14:53;18.48;;;15.02;;
59846;SDS011;45728;48.788;2.302;2023-06-22T07:17:19;20.02;;;15.48;;
59846;SDS011;45728;48.788;2.302;2023-06-22T07:19:45;18.98;;;15.30;;
59846;SDS011;45728;48.788;2.302;2023-06-22T07:22:11;20.25;;;14.23;;
59846;SDS011;45728;48.788;2.302;2023-06-22T07:24:37;20.75;;;16.08;;
59846;SDS011;45728;48.788;2.302;2023-06-22T07:27:03;21.75;;;15.90;;
59846;SDS011;45728;48.788;2.302;2023-06-22T07:29:32;25.02;;;17.20;;
59846;SDS011;45728;48.788;2.302;2023-06-22T07:31:58;20.85;;;14.98;;
59846;SDS011;45728;48.788;2.302;2023-06-22T07:34:26;16.63;;;13.52;;
59846;SDS011;45728;48.788;2.302;2023-06-22T07:36:52;18.02;;;15.65;;
59846;SDS011;45728;48.788;2.302;2023-06-22T07:39:18;19.88;;;16.85;;
59846;SDS011;45728;48.788;2.302;2023-06-22T07:41:47;28.20;;;17.42;;
59846;SDS011;45728;48.788;2.302;2023-06-22T07:44:13;20.05;;;16.70;;
59846;SDS011;45728;48.788;2.302;2023-06-22T07:46:39;24.05;;;18.98;;
59846;SDS011;45728;48.788;2.302;2023-06-22T07:49:05;19.33;;;16.98;;
59846;SDS011;45728;48.788;2.302;2023-06-22T07:51:33;22.15;;;18.10;;
59846;SDS011;45728;48.788;2.302;2023-06-22T07:54:00;23.70;;;18.00;;
59846;SDS011;45728;48.788;2.302;2023-06-22T07:56:26;25.50;;;19.35;;
59846;SDS011;45728;48.788;2.302;2023-06-22T07:58:52;22.60;;;17.17;;
59846;SDS011;45728;48.788;2.302;2023-06-22T08:01:18;23.67;;;18.67;;
59846;SDS011;45728;48.788;2.302;2023-06-22T08:03:49;21.73;;;17.67;;
59846;SDS011;45728;48.788;2.302;2023-06-22T08:06:15;24.08;;;20.30;;
59846;SDS011;45728;48.788;2.302;2023-06-22T08:08:42;24.58;;;20.10;;
59846;SDS011;45728;48.788;2.302;2023-06-22T08:11:08;23.48;;;19.63;;
59846;SDS011;45728;48.788;2.302;2023-06-22T08:13:34;24.25;;;19.08;;
59846;SDS011;45728;48.788;2.302;2023-06-22T08:16:01;30.23;;;22.08;;
59846;SDS011;45728;48.788;2.302;2023-06-22T08:18:27;27.15;;;21.45;;
59846;SDS011;45728;48.788;2.302;2023-06-22T08:20:53;27.73;;;21.38;;
59846;SDS011;45728;48.788;2.302;2023-06-22T08:23:20;28.25;;;21.67;;
59846;SDS011;45728;48.788;2.302;2023-06-22T08:25:46;27.25;;;23.00;;
59846;SDS011;45728;48.788;2.302;2023-06-22T08:28:13;28.33;;;22.33;;
59846;SDS011;45728;48.788;2.302;2023-06-22T08:30:39;28.50;;;22.90;;
59846;SDS011;45728;48.788;2.302;2023-06-22T08:33:05;26.67;;;21.63;;
59846;SDS011;45728;48.788;2.302;2023-06-22T08:35:31;23.45;;;20.92;;
59846;SDS011;45728;48.788;2.302;2023-06-22T08:37:57;28.42;;;22.40;;
59846;SDS011;45728;48.788;2.302;2023-06-22T08:40:25;25.98;;;21.52;;
59846;SDS011;45728;48.788;2.302;2023-06-22T08:42:51;28.00;;;24.02;;
59846;SDS011;45728;48.788;2.302;2023-06-22T08:45:17;29.35;;;23.60;;
59846;SDS011;45728;48.788;2.302;2023-06-22T08:47:43;26.38;;;23.05;;
59846;SDS011;45728;48.788;2.302;2023-06-22T08:50:09;28.52;;;23.30;;
59846;SDS011;45728;48.788;2.302;2023-06-22T08:52:37;28.02;;;23.70;;
59846;SDS011;45728;48.788;2.302;2023-06-22T08:55:07;28.05;;;24.48;;
59846;SDS011;45728;48.788;2.302;2023-06-22T08:57:34;28.85;;;24.17;;
59846;SDS011;45728;48.788;2.302;2023-06-22T09:00:03;28.10;;;24.23;;
59846;SDS011;45728;48.788;2.302;2023-06-22T09:02:40;27.60;;;24.63;;
59846;SDS011;45728;48.788;2.302;2023-06-22T09:05:06;31.45;;;26.48;;
59846;SDS011;45728;48.788;2.302;2023-06-22T09:07:32;31.75;;;27.65;;
59846;SDS011;45728;48.788;2.302;2023-06-22T09:09:59;32.88;;;29.27;;
59846;SDS011;45728;48.788;2.302;2023-06-22T09:12:26;35.60;;;27.88;;
59846;SDS011;45728;48.788;2.302;2023-06-22T09:14:53;35.28;;;29.40;;
59846;SDS011;45728;48.788;2.302;2023-06-22T09:17:19;34.67;;;28.02;;
59846;SDS011;45728;48.788;2.302;2023-06-22T09:19:45;32.60;;;27.92;;
59846;SDS011;45728;48.788;2.302;2023-06-22T09:22:13;33.33;;;27.75;;
59846;SDS011;45728;48.788;2.302;2023-06-22T09:24:39;30.42;;;26.23;;
59846;SDS011;45728;48.788;2.302;2023-06-22T09:27:05;33.22;;;26.00;;
59846;SDS011;45728;48.788;2.302;2023-06-22T09:29:31;32.58;;;26.05;;
59846;SDS011;45728;48.788;2.302;2023-06-22T09:32:00;36.70;;;25.48;;
59846;SDS011;45728;48.788;2.302;2023-06-22T09:34:27;29.63;;;24.92;;
59846;SDS011;45728;48.788;2.302;2023-06-22T09:36:53;28.05;;;24.70;;
59846;SDS011;45728;48.788;2.302;2023-06-22T09:39:20;30.77;;;25.08;;
59846;SDS011;45728;48.788;2.302;2023-06-22T09:41:46;30.67;;;24.45;;
59846;SDS011;45728;48.788;2.302;2023-06-22T09:44:12;29.67;;;24.60;;
59846;SDS011;45728;48.788;2.302;2023-06-22T09:46:38;32.17;;;22.85;;
59846;SDS011;45728;48.788;2.302;2023-06-22T09:49:05;29.02;;;23.85;;
59846;SDS011;45728;48.788;2.302;2023-06-22T09:51:31;37.42;;;26.92;;
59846;SDS011;45728;48.788;2.302;2023-06-22T09:53:58;40.28;;;31.33;;
59846;SDS011;45728;48.788;2.302;2023-06-22T09:56:24;33.42;;;26.35;;
59846;SDS011;45728;48.788;2.302;2023-06-22T09:58:50;31.13;;;26.85;;
59846;SDS011;45728;48.788;2.302;2023-06-22T10:01:18;31.90;;;24.63;;
59846;SDS011;45728;48.788;2.302;2023-06-22T10:03:46;27.92;;;22.95;;
59846;SDS011;45728;48.788;2.302;2023-06-22T10:06:12;28.02;;;22.00;;
59846;SDS011;45728;48.788;2.302;2023-06-22T10:08:38;26.17;;;22.40;;
59846;SDS011;45728;48.788;2.302;2023-06-22T10:11:06;32.03;;;23.52;;
59846;SDS011;45728;48.788;2.302;2023-06-22T10:13:32;29.92;;;22.67;;
59846;SDS011;45728;48.788;2.302;2023-06-22T10:15:58;27.08;;;21.45;;
59846;SDS011;45728;48.788;2.302;2023-06-22T10:18:24;26.50;;;20.92;;
59846;SDS011;45728;48.788;2.302;2023-06-22T10:20:50;26.05;;;20.08;;
59846;SDS011;45728;48.788;2.302;2023-06-22T10:23:17;22.27;;;17.60;;
59846;SDS011;45728;48.788;2.302;2023-06-22T10:25:44;20.13;;;17.92;;
59846;SDS011;45728;48.788;2.302;2023-06-22T10:28:10;22.20;;;18.30;;
59846;SDS011;45728;48.788;2.302;2023-06-22T10:30:38;21.35;;;17.55;;
59846;SDS011;45728;48.788;2.302;2023-06-22T10:33:07;20.85;;;16.63;;
59846;SDS011;45728;48.788;2.302;2023-06-22T10:35:33;19.98;;;15.13;;
59846;SDS011;45728;48.788;2.302;2023-06-22T10:38:00;19.08;;;15.88;;
59846;SDS011;45728;48.788;2.302;2023-06-22T10:40:26;15.85;;;14.18;;
59846;SDS011;45728;48.788;2.302;2023-06-22T10:42:52;18.27;;;14.10;;
59846;SDS011;45728;48.788;2.302;2023-06-22T10:45:18;17.33;;;14.73;;
59846;SDS011;45728;48.788;2.302;2023-06-22T10:47:44;16.20;;;14.20;;
59846;SDS011;45728;48.788;2.302;2023-06-22T10:50:10;16.90;;;13.75;;
59846;SDS011;45728;48.788;2.302;2023-06-22T10:52:37;14.90;;;13.00;;
59846;SDS011;45728;48.788;2.302;2023-06-22T10:55:03;14.57;;;12.43;;
59846;SDS011;45728;48.788;2.302;2023-06-22T10:57:30;14.48;;;12.13;;
59846;SDS011;45728;48.788;2.302;2023-06-22T10:59:56;13.85;;;12.38;;
59846;SDS011;45728;48.788;2.302;2023-06-22T11:02:23;13.13;;;11.50;;
59846;SDS011;45728;48.788;2.302;2023-06-22T11:04:50;13.32;;;11.93;;
59846;SDS011;45728;48.788;2.302;2023-06-22T11:07:16;14.50;;;12.70;;
59846;SDS011;45728;48.788;2.302;2023-06-22T11:09:45;13.35;;;11.55;;
59846;SDS011;45728;48.788;2.302;2023-06-22T11:12:11;14.50;;;12.30;;
59846;SDS011;45728;48.788;2.302;2023-06-22T11:14:38;14.57;;;12.25;;
59846;SDS011;45728;48.788;2.302;2023-06-22T11:17:04;14.85;;;11.57;;
59846;SDS011;45728;48.788;2.302;2023-06-22T11:19:31;13.32;;;11.20;;
59846;SDS011;45728;48.788;2.302;2023-06-22T11:21:57;11.95;;;10.63;;
59846;SDS011;45728;48.788;2.302;2023-06-22T11:24:23;12.30;;;10.48;;
59846;SDS011;45728;48.788;2.302;2023-06-22T11:26:49;12.40;;;11.20;;
59846;SDS011;45728;48.788;2.302;2023-06-22T11:29:15;13.55;;;10.82;;
59846;SDS011;45728;48.788;2.302;2023-06-22T11:31:41;12.20;;;10.38;;
59846;SDS011;45728;48.788;2.302;2023-06-22T11:34:08;11.88;;;10.43;;
59846;SDS011;45728;48.788;2.302;2023-06-22T11:36:35;13.32;;;10.38;;
59846;SDS011;45728;48.788;2.302;2023-06-22T11:39:01;11.85;;;9.88;;
59846;SDS011;45728;48.788;2.302;2023-06-22T11:41:27;10.27;;;9.20;;
59846;SDS011;45728;48.788;2.302;2023-06-22T11:43:54;10.18;;;9.00;;
59846;SDS011;45728;48.788;2.302;2023-06-22T11:46:20;9.95;;;8.90;;
59846;SDS011;45728;48.788;2.302;2023-06-22T11:48:46;9.70;;;8.32;;
59846;SDS011;45728;48.788;2.302;2023-06-22T11:51:12;9.63;;;8.73;;
59846;SDS011;45728;48.788;2.302;2023-06-22T11:53:38;9.88;;;8.65;;
59846;SDS011;45728;48.788;2.302;2023-06-22T11:56:04;9.48;;;8.35;;
59846;SDS011;45728;48.788;2.302;2023-06-22T11:58:30;10.13;;;8.55;;
59846;SDS011;45728;48.788;2.302;2023-06-22T12:00:56;9.55;;;8.55;;
59846;SDS011;45728;48.788;2.302;2023-06-22T12:03:22;10.05;;;8.70;;
59846;SDS011;45728;48.788;2.302;2023-06-22T12:05:49;9.95;;;8.23;;
59846;SDS011;45728;48.788;2.302;2023-06-22T12:08:15;11.63;;;8.48;;
59846;SDS011;45728;48.788;2.302;2023-06-22T12:10:42;9.98;;;8.80;;
59846;SDS011;45728;48.788;2.302;2023-06-22T12:13:08;11.27;;;8.65;;
59846;SDS011;45728;48.788;2.302;2023-06-22T12:15:34;11.27;;;8.38;;
59846;SDS011;45728;48.788;2.302;2023-06-22T12:18:00;8.90;;;7.53;;
59846;SDS011;45728;48.788;2.302;2023-06-22T12:20:26;10.52;;;7.63;;
59846;SDS011;45728;48.788;2.302;2023-06-22T12:22:52;10.32;;;8.50;;
59846;SDS011;45728;48.788;2.302;2023-06-22T12:25:21;8.37;;;7.30;;
59846;SDS011;45728;48.788;2.302;2023-06-22T12:27:47;8.30;;;7.05;;
59846;SDS011;45728;48.788;2.302;2023-06-22T12:30:15;9.32;;;7.10;;
59846;SDS011;45728;48.788;2.302;2023-06-22T12:32:42;8.82;;;7.38;;
59846;SDS011;45728;48.788;2.302;2023-06-22T12:35:08;9.80;;;8.75;;
59846;SDS011;45728;48.788;2.302;2023-06-22T12:37:40;12.75;;;8.73;;
59846;SDS011;45728;48.788;2.302;2023-06-22T12:40:09;10.32;;;8.77;;
59846;SDS011;45728;48.788;2.302;2023-06-22T12:42:36;11.07;;;9.20;;
59846;SDS011;45728;48.788;2.302;2023-06-22T12:45:02;10.07;;;8.95;;
59846;SDS011;45728;48.788;2.302;2023-06-22T12:47:28;9.70;;;8.68;;
59846;SDS011;45728;48.788;2.302;2023-06-22T12:49:54;11.55;;;9.65;;
59846;SDS011;45728;48.788;2.302;2023-06-22T12:52:20;12.18;;;9.35;;
59846;SDS011;45728;48.788;2.302;2023-06-22T12:54:46;12.25;;;10.20;;
59846;SDS011;45728;48.788;2.302;2023-06-22T12:57:14;12.65;;;9.82;;
59846;SDS011;45728;48.788;2.302;2023-06-22T12:59:40;10.27;;;9.20;;
59846;SDS011;45728;48.788;2.302;2023-06-22T13:02:06;9.75;;;8.75;;
59846;SDS011;45728;48.788;2.302;2023-06-22T13:04:32;10.13;;;8.93;;
59846;SDS011;45728;48.788;2.302;2023-06-22T13:06:58;12.10;;;9.95;;
59846;SDS011;45728;48.788;2.302;2023-06-22T13:09:24;13.07;;;10.27;;
59846;SDS011;45728;48.788;2.302;2023-06-22T13:11:50;10.32;;;8.85;;
59846;SDS011;45728;48.788;2.302;2023-06-22T13:14:18;10.57;;;9.30;;
59846;SDS011;45728;48.788;2.302;2023-06-22T13:16:44;11.75;;;9.18;;
59846;SDS011;45728;48.788;2.302;2023-06-22T13:19:10;13.10;;;10.13;;
59846;SDS011;45728;48.788;2.302;2023-06-22T13:21:36;10.20;;;9.00;;
59846;SDS011;45728;48.788;2.302;2023-06-22T13:24:02;10.65;;;9.32;;
59846;SDS011;45728;48.788;2.302;2023-06-22T13:26:29;11.63;;;10.07;;
59846;SDS011;45728;48.788;2.302;2023-06-22T13:28:55;11.27;;;10.07;;
59846;SDS011;45728;48.788;2.302;2023-06-22T13:31:21;10.00;;;8.93;;
59846;SDS011;45728;48.788;2.302;2023-06-22T13:33:47;10.63;;;8.82;;
59846;SDS011;45728;48.788;2.302;2023-06-22T13:36:14;11.55;;;9.77;;
59846;SDS011;45728;48.788;2.302;2023-06-22T13:38:40;11.35;;;9.77;;
59846;SDS011;45728;48.788;2.302;2023-06-22T13:41:07;10.88;;;9.55;;
59846;SDS011;45728;48.788;2.302;2023-06-22T13:43:33;9.90;;;8.90;;
59846;SDS011;45728;48.788;2.302;2023-06-22T13:45:59;11.45;;;10.25;;
59846;SDS011;45728;48.788;2.302;2023-06-22T13:48:25;12.27;;;10.93;;
59846;SDS011;45728;48.788;2.302;2023-06-22T13:50:51;9.93;;;9.02;;
59846;SDS011;45728;48.788;2.302;2023-06-22T13:53:18;11.02;;;9.93;;
59846;SDS011;45728;48.788;2.302;2023-06-22T13:55:44;11.65;;;10.45;;
59846;SDS011;45728;48.788;2.302;2023-06-22T13:58:10;12.80;;;11.20;;
59846;SDS011;45728;48.788;2.302;2023-06-22T14:00:36;15.13;;;11.13;;
59846;SDS011;45728;48.788;2.302;2023-06-22T14:03:02;14.27;;;12.05;;
59846;SDS011;45728;48.788;2.302;2023-06-22T14:05:28;12.75;;;10.90;;
59846;SDS011;45728;48.788;2.302;2023-06-22T14:07:55;12.43;;;11.02;;
59846;SDS011;45728;48.788;2.302;2023-06-22T14:10:21;13.85;;;11.85;;
59846;SDS011;45728;48.788;2.302;2023-06-22T14:12:47;11.55;;;10.35;;
59846;SDS011;45728;48.788;2.302;2023-06-22T14:15:13;12.15;;;9.50;;
59846;SDS011;45728;48.788;2.302;2023-06-22T14:17:41;12.00;;;10.50;;
59846;SDS011;45728;48.788;2.302;2023-06-22T14:20:07;11.98;;;10.43;;
59846;SDS011;45728;48.788;2.302;2023-06-22T14:22:34;14.40;;;9.70;;
59846;SDS011;45728;48.788;2.302;2023-06-22T14:25:01;11.68;;;10.13;;
59846;SDS011;45728;48.788;2.302;2023-06-22T14:27:27;11.25;;;9.50;;
59846;SDS011;45728;48.788;2.302;2023-06-22T14:29:53;14.10;;;9.75;;
59846;SDS011;45728;48.788;2.302;2023-06-22T14:32:19;10.00;;;8.60;;
59846;SDS011;45728;48.788;2.302;2023-06-22T14:34:45;12.48;;;8.90;;
59846;SDS011;45728;48.788;2.302;2023-06-22T14:37:11;9.73;;;8.73;;
59846;SDS011;45728;48.788;2.302;2023-06-22T14:39:41;13.32;;;9.18;;
59846;SDS011;45728;48.788;2.302;2023-06-22T14:42:08;11.75;;;9.48;;
59846;SDS011;45728;48.788;2.302;2023-06-22T14:44:34;10.38;;;9.35;;
59846;SDS011;45728;48.788;2.302;2023-06-22T14:47:00;12.48;;;9.07;;
59846;SDS011;45728;48.788;2.302;2023-06-22T14:49:26;11.80;;;9.20;;